createdAt,value
2022-11-17T00:02:44.990Z,98693.88
2022-11-17T00:06:46.989Z,98699.78
2022-11-17T00:10:48.838Z,98681.00
2022-11-17T00:14:50.769Z,98700.38
2022-11-17T00:19:11.176Z,98682.16
2022-11-17T00:23:13.087Z,98688.66
2022-11-17T00:27:15.320Z,98694.78
2022-11-17T00:31:38.037Z,98696.84
2022-11-17T00:35:40.003Z,98690.31
2022-11-17T00:39:41.997Z,98693.75
2022-11-17T00:43:43.764Z,98689.50
2022-11-17T00:47:45.684Z,98672.84
2022-11-17T00:51:47.690Z,98683.97
2022-11-17T00:55:49.528Z,98668.19
2022-11-17T00:59:51.432Z,98672.53
2022-11-17T01:04:03.195Z,98680.75
2022-11-17T01:08:05.591Z,98675.00
2022-11-17T01:12:07.505Z,98669.88
2022-11-17T01:16:14.887Z,98647.63
2022-11-17T01:20:16.713Z,98652.84
2022-11-17T01:24:18.711Z,98647.28
2022-11-17T01:28:20.508Z,98654.75
2022-11-17T01:32:46.981Z,98644.31
2022-11-17T01:37:07.649Z,98654.91
2022-11-17T01:41:21.308Z,98649.59
2022-11-17T01:45:23.410Z,98660.56
2022-11-17T01:49:25.779Z,98641.41
2022-11-17T01:53:28.988Z,98633.47
2022-11-17T01:57:46.433Z,98649.09
2022-11-17T02:01:57.680Z,98643.16
2022-11-17T02:06:12.886Z,98634.88
2022-11-17T02:10:17.050Z,98632.38
2022-11-17T02:14:18.989Z,98624.16
2022-11-17T02:18:20.897Z,98613.03
2022-11-17T02:23:03.509Z,98617.41
2022-11-17T02:27:44.798Z,98613.03
2022-11-17T02:31:58.196Z,98610.03
2022-11-17T02:36:16.615Z,98611.09
2022-11-17T02:41:00.318Z,98612.75
2022-11-17T02:45:02.873Z,98612.53
2022-11-17T02:49:12.477Z,98614.47
2022-11-17T02:53:14.442Z,98611.59
2022-11-17T02:57:40.186Z,98624.25
2022-11-17T03:01:57.143Z,98611.66
2022-11-17T03:06:14.505Z,98607.91
2022-11-17T03:10:48.512Z,98597.72
2022-11-17T03:15:14.473Z,98607.19
2022-11-17T03:19:39.491Z,98601.75
2022-11-17T03:23:47.106Z,98585.13
2022-11-17T03:27:52.743Z,98598.34
2022-11-17T03:31:58.347Z,98593.91
2022-11-17T03:36:07.920Z,98592.16
2022-11-17T03:40:12.407Z,98586.66
2022-11-17T03:44:14.467Z,98593.69
2022-11-17T03:48:45.228Z,98603.38
2022-11-17T03:57:50.068Z,98598.66
2022-11-17T04:01:52.127Z,98581.50
2022-11-17T04:05:54.262Z,98572.94
2022-11-17T04:09:56.309Z,98594.03
2022-11-17T04:14:22.242Z,98589.78
2022-11-17T04:18:24.160Z,98582.22
2022-11-17T04:22:26.062Z,98567.34
2022-11-17T04:26:46.924Z,98563.78
2022-11-17T04:30:48.831Z,98565.31
2022-11-17T04:34:51.917Z,98565.78
2022-11-17T04:38:55.471Z,98561.13
2022-11-17T04:42:57.377Z,98550.84
2022-11-17T04:46:59.597Z,98558.16
2022-11-17T04:51:03.744Z,98545.06
2022-11-17T04:55:06.329Z,98546.72
2022-11-17T04:59:08.490Z,98542.53
2022-11-17T05:03:10.386Z,98541.91
2022-11-17T05:07:12.342Z,98551.50
2022-11-17T05:11:33.513Z,98516.59
2022-11-17T05:15:53.792Z,98535.06
2022-11-17T05:19:56.028Z,98520.38
2022-11-17T05:24:08.724Z,98514.53
2022-11-17T05:28:54.018Z,98500.53
2022-11-17T05:32:56.026Z,98508.53
2022-11-17T05:36:59.625Z,98513.06
2022-11-17T05:41:01.709Z,98523.66
2022-11-17T05:45:19.313Z,98503.38
2022-11-17T05:49:29.815Z,98484.88
2022-11-17T05:53:32.184Z,98498.78
2022-11-17T05:57:34.376Z,98490.91
2022-11-17T06:07:03.531Z,98499.72
2022-11-17T06:11:05.912Z,98501.34
2022-11-17T06:15:08.501Z,98499.09
2022-11-17T06:19:17.233Z,98511.84
2022-11-17T06:23:26.929Z,98491.56
2022-11-17T06:28:22.417Z,98505.41
2022-11-17T06:32:24.389Z,98510.19
2022-11-17T06:36:28.822Z,98495.09
2022-11-17T06:40:48.116Z,98483.41
2022-11-17T06:44:53.451Z,98493.84
2022-11-17T06:48:55.523Z,98482.38
2022-11-17T06:53:05.759Z,98481.59
2022-11-17T06:57:07.844Z,98483.53
2022-11-17T07:01:14.070Z,98471.38
2022-11-17T07:05:16.417Z,98469.13
2022-11-17T07:09:18.406Z,98469.75
2022-11-17T07:13:24.015Z,98468.19
2022-11-17T07:17:25.942Z,98485.22
2022-11-17T07:21:30.121Z,98474.78
2022-11-17T07:25:32.103Z,98472.56
2022-11-17T07:29:34.021Z,98459.06
2022-11-17T07:33:36.677Z,98457.47
2022-11-17T07:37:38.577Z,98460.84
2022-11-17T07:41:43.655Z,98457.31
2022-11-17T07:45:45.629Z,98462.19
2022-11-17T07:49:47.775Z,98460.31
2022-11-17T07:54:41.088Z,98457.94
2022-11-17T08:05:35.912Z,98464.41
2022-11-17T08:21:32.739Z,98458.38
2022-11-17T08:25:35.102Z,98450.34
2022-11-17T08:29:56.245Z,98454.84
2022-11-17T08:33:58.278Z,98459.06
2022-11-17T08:38:02.373Z,98456.47
2022-11-17T08:42:04.407Z,98446.66
2022-11-17T08:46:15.514Z,98434.22
2022-11-17T08:50:31.981Z,98452.63
2022-11-17T11:44:12.897Z,98377.75
2022-11-17T12:04:52.593Z,98364.75
2022-11-17T12:09:46.587Z,98353.72
2022-11-17T12:13:54.311Z,98354.56
2022-11-17T12:18:00.394Z,98357.00
2022-11-17T12:22:02.759Z,98352.59
2022-11-17T12:26:04.876Z,98356.00
2022-11-17T12:30:33.075Z,98354.69
2022-11-17T12:34:37.233Z,98363.44
2022-11-17T12:38:40.274Z,98353.41
2022-11-17T12:43:21.490Z,98362.88
2022-11-17T12:47:39.423Z,98368.88
2022-11-17T12:52:00.667Z,98357.88
2022-11-17T12:56:25.246Z,98377.78
2022-11-17T13:00:27.228Z,98382.56
2022-11-17T13:04:43.867Z,98380.88
2022-11-17T13:14:28.402Z,98387.25
2022-11-17T13:18:40.119Z,98392.00
2022-11-17T13:22:46.226Z,98390.28
2022-11-17T13:27:02.787Z,98385.59
2022-11-17T13:31:22.645Z,98393.41
2022-11-17T13:35:31.887Z,98385.00
2022-11-17T13:39:37.377Z,98381.81
2022-11-17T13:43:40.077Z,98374.63
2022-11-17T13:47:50.760Z,98373.63
2022-11-17T13:51:55.636Z,98375.44
2022-11-17T13:55:57.929Z,98369.59
2022-11-17T14:00:00.164Z,98376.31
2022-11-17T14:04:22.444Z,98381.53
2022-11-17T14:08:31.954Z,98376.31
2022-11-17T14:12:37.895Z,98374.97
2022-11-17T14:16:42.928Z,98364.91
2022-11-17T14:20:47.610Z,98365.13
2022-11-17T14:24:50.038Z,98368.28
2022-11-17T14:29:14.222Z,98371.19
2022-11-17T14:33:53.492Z,98367.44
2022-11-17T14:37:55.977Z,98360.09
2022-11-17T14:42:27.578Z,98365.91
2022-11-17T14:46:38.940Z,98360.22
2022-11-17T14:50:44.157Z,98357.44
2022-11-17T14:55:48.742Z,98365.06
2022-11-17T15:00:10.287Z,98358.47
2022-11-17T15:04:49.396Z,98353.59
2022-11-17T15:09:09.693Z,98368.19
2022-11-17T15:13:12.171Z,98374.75
2022-11-17T15:17:24.643Z,98379.94
2022-11-17T15:21:26.561Z,98355.56
2022-11-17T15:25:28.537Z,98380.88
2022-11-17T15:29:30.589Z,98375.97
2022-11-17T15:33:32.550Z,98377.56
2022-11-17T15:37:35.688Z,98377.03
2022-11-17T15:41:37.640Z,98375.19
2022-11-17T15:45:45.727Z,98372.69
2022-11-17T15:49:47.720Z,98378.09
2022-11-17T15:53:51.047Z,98368.84
2022-11-17T15:57:54.877Z,98366.50
2022-11-17T16:02:00.449Z,98361.69
2022-11-17T16:06:02.648Z,98359.25
2022-11-17T16:10:05.293Z,98364.88
2022-11-17T16:14:10.362Z,98371.69
2022-11-17T16:18:12.331Z,98363.84
2022-11-17T16:22:14.307Z,98374.59
2022-11-17T16:26:19.554Z,98359.75
2022-11-17T16:30:21.484Z,98363.50
2022-11-17T16:34:25.814Z,98357.19
2022-11-17T16:38:33.397Z,98362.06
2022-11-17T16:42:35.460Z,98360.84
2022-11-17T16:46:37.811Z,98362.84
2022-11-17T16:50:54.438Z,98357.66
2022-11-17T16:55:01.771Z,98354.63
2022-11-17T16:59:06.556Z,98351.75
2022-11-17T17:03:09.460Z,98354.13
2022-11-17T17:07:14.249Z,98369.50
2022-11-17T17:11:25.300Z,98352.44
2022-11-17T17:15:36.986Z,98357.63
2022-11-17T17:19:47.104Z,98352.19
2022-11-17T17:29:09.073Z,98342.75
2022-11-17T17:33:46.443Z,98348.56
2022-11-17T17:40:03.974Z,98349.84
2022-11-17T17:48:29.038Z,98344.66
2022-11-17T18:04:36.078Z,98340.69
2022-11-17T18:25:12.515Z,98347.56
2022-11-17T18:29:21.341Z,98344.19
2022-11-17T19:23:31.333Z,98352.03
2022-11-17T20:54:15.713Z,98330.06
2022-11-17T20:58:21.439Z,98340.06
2022-11-17T21:07:08.863Z,98343.44
2022-11-17T21:11:36.282Z,98334.81
2022-11-17T21:15:38.218Z,98346.38
2022-11-17T21:19:40.186Z,98357.88
2022-11-17T21:23:44.618Z,98364.94
2022-11-17T21:27:47.816Z,98358.97
2022-11-17T21:37:05.402Z,98352.56
2022-11-17T21:41:16.847Z,98333.78
2022-11-17T21:45:19.076Z,98344.03
2022-11-17T21:49:28.232Z,98341.34
2022-11-17T21:53:37.485Z,98319.16
2022-11-17T21:57:41.997Z,98339.47
2022-11-17T22:01:44.008Z,98354.00
2022-11-17T22:05:46.053Z,98345.34
2022-11-17T22:09:59.930Z,98355.47
2022-11-17T22:14:10.609Z,98359.31
2022-11-17T22:18:12.578Z,98355.75
2022-11-17T22:22:14.506Z,98366.69
2022-11-17T22:26:16.781Z,98375.31
2022-11-17T22:30:18.700Z,98359.97
2022-11-17T22:34:20.693Z,98355.84
2022-11-17T22:38:23.881Z,98358.34
2022-11-17T22:42:25.768Z,98347.47
2022-11-17T22:46:31.091Z,98354.06
2022-11-17T22:50:33.131Z,98361.06
2022-11-17T22:54:35.471Z,98368.00
2022-11-17T22:58:37.393Z,98360.34
2022-11-17T23:02:39.272Z,98359.16
2022-11-17T23:06:41.127Z,98353.25
2022-11-17T23:10:45.546Z,98359.66
2022-11-17T23:14:47.547Z,98342.28
2022-11-17T23:18:55.443Z,98346.72
2022-11-17T23:22:57.533Z,98354.91
2022-11-17T23:26:59.496Z,98366.59
2022-11-17T23:31:03.391Z,98364.16
2022-11-17T23:35:10.617Z,98368.81
2022-11-17T23:39:12.779Z,98377.84
2022-11-17T23:43:14.730Z,98385.53
2022-11-17T23:47:19.110Z,98369.97
2022-11-17T23:52:01.270Z,98374.03
2022-11-17T23:56:14.069Z,98375.16
